Time;durP1;ratioP1;P1;durP2;ratioP2;P2;SDS_P1;SDS_P2;PMS_P1;PMS_P2;Temp;Humidity;BMP_temperature;BMP_pressure;BME280_temperature;BME280_humidity;BME280_pressure;Samples;Min_cycle;Max_cycle;Signal;HPM_P1;HPM_P2
2023/01/14 00:01:40;;;;;;;7.73;2.80;;;;;;;6.15;nan;-23988.69;5033444;28;20203;-71
2023/01/14 00:04:06;;;;;;;6.43;3.03;;;;;;;6.14;nan;-23988.25;5034185;28;20167;-71
2023/01/14 00:06:35;;;;;;;3.97;3.03;;;;;;;6.59;nan;-24000.88;5034238;28;20203;-72
2023/01/14 00:09:04;;;;;;;5.80;3.37;;;;;;;6.20;nan;-23990.09;5033998;28;20171;-72
2023/01/14 00:11:48;;;;;;;4.80;3.63;;;;;;;6.50;nan;-23998.47;5034053;28;20179;-73
2023/01/14 00:14:30;;;;;;;4.40;3.43;;;;;;;6.10;nan;-23987.25;5033808;28;20178;-72
2023/01/14 00:16:58;;;;;;;4.50;3.23;;;;;;;6.11;nan;-23987.53;5034190;28;20171;-72
2023/01/14 00:19:24;;;;;;;5.63;3.17;;;;;;;6.48;nan;-23997.75;5034168;28;20175;-71
2023/01/14 00:21:50;;;;;;;6.00;3.87;;;;;;;6.43;nan;-23996.34;5032464;28;20179;-71
2023/01/14 00:24:21;;;;;;;4.00;3.27;;;;;;;6.61;nan;-24001.47;5033132;28;20262;-72
2023/01/14 00:26:50;;;;;;;5.17;3.67;;;;;;;2.83;nan;-23895.00;5033526;28;20256;-72
2023/01/14 00:29:18;;;;;;;6.60;3.80;;;;;;;6.59;nan;-24000.88;5033588;28;20635;-72
2023/01/14 00:31:44;;;;;;;4.30;2.97;;;;;;;6.69;nan;-24003.59;5033982;28;20178;-73
2023/01/14 00:34:10;;;;;;;4.73;2.97;;;;;;;6.68;nan;-24003.44;5033709;28;20190;-71
2023/01/14 00:36:35;;;;;;;6.43;4.13;;;;;;;6.69;nan;-24003.59;5033385;28;20167;-72
2023/01/14 00:39:01;;;;;;;5.63;3.83;;;;;;;6.24;nan;-23990.94;5033453;28;20175;-72
2023/01/14 00:41:27;;;;;;;8.33;3.87;;;;;;;6.59;nan;-24000.88;5033613;28;20198;-72
2023/01/14 00:43:59;;;;;;;6.67;4.17;;;;;;;6.64;nan;-24002.44;5033264;28;20258;-73
2023/01/14 00:46:30;;;;;;;9.37;4.03;;;;;;;6.71;nan;-24004.28;5033379;28;20238;-72
2023/01/14 00:48:58;;;;;;;8.90;4.43;;;;;;;6.52;nan;-23998.91;5033303;28;20172;-72
2023/01/14 00:51:24;;;;;;;8.53;5.07;;;;;;;6.53;nan;-23999.31;5031893;28;20659;-73
2023/01/14 00:53:49;;;;;;;9.67;5.30;;;;;;;6.65;nan;-24002.72;5032453;28;20179;-72
2023/01/14 00:56:19;;;;;;;11.13;5.57;;;;;;;6.29;nan;-23992.38;5033228;28;20550;-72
2023/01/14 00:58:45;;;;;;;8.87;4.87;;;;;;;6.56;nan;-24000.03;5033550;28;20172;-70
2023/01/14 01:01:11;;;;;;;7.67;4.77;;;;;;;6.62;nan;-24001.88;5032051;28;20673;-71
2023/01/14 01:03:39;;;;;;;7.90;5.00;;;;;;;6.41;nan;-23995.91;5033172;28;20235;-70
2023/01/14 01:06:06;;;;;;;8.23;5.00;;;;;;;6.15;nan;-23988.53;5032514;28;20192;-71
2023/01/14 01:08:32;;;;;;;9.07;5.27;;;;;;;6.17;nan;-23989.09;5032843;28;20294;-72
2023/01/14 01:10:59;;;;;;;9.07;4.97;;;;;;;6.10;nan;-23987.25;5032594;28;20186;-72
2023/01/14 01:13:24;;;;;;;8.70;5.20;;;;;;;6.48;nan;-23997.91;5033091;28;20167;-71
2023/01/14 01:15:51;;;;;;;8.37;4.50;;;;;;;6.34;nan;-23993.94;5032468;28;20182;-72
2023/01/14 01:18:18;;;;;;;9.20;4.97;;;;;;;6.24;nan;-23990.94;5030922;28;20198;-72
2023/01/14 01:20:44;;;;;;;9.93;4.80;;;;;;;6.35;nan;-23994.06;5030852;28;20639;-71
2023/01/14 01:23:12;;;;;;;8.90;5.60;;;;;;;6.42;nan;-23996.22;5031869;28;20266;-71
2023/01/14 01:25:38;;;;;;;10.20;5.10;;;;;;;6.34;nan;-23993.94;5032208;28;20241;-71
2023/01/14 01:28:03;;;;;;;8.60;4.70;;;;;;;6.38;nan;-23994.94;5031842;28;20246;-71
2023/01/14 01:30:29;;;;;;;10.67;5.20;;;;;;;6.04;nan;-23985.41;5032310;28;20225;-72
2023/01/14 01:32:55;;;;;;;8.50;4.93;;;;;;;6.08;nan;-23986.69;5032535;28;20175;-71
2023/01/14 01:35:22;;;;;;;8.53;4.97;;;;;;;6.44;nan;-23996.63;5032044;28;20533;-72
2023/01/14 01:37:48;;;;;;;7.43;4.23;;;;;;;6.09;nan;-23986.84;5031256;28;20223;-71
2023/01/14 01:40:14;;;;;;;14.00;6.73;;;;;;;6.10;nan;-23987.13;5032297;28;20225;-72
2023/01/14 01:42:55;;;;;;;10.40;5.20;;;;;;;6.48;nan;-23997.75;5032252;28;20225;-71
2023/01/14 01:45:39;;;;;;;10.17;5.67;;;;;;;6.47;nan;-23997.47;5032479;28;20213;-71
2023/01/14 01:48:21;;;;;;;8.43;5.17;;;;;;;6.20;nan;-23990.09;5031463;28;20170;-71
2023/01/14 01:50:52;;;;;;;8.33;4.97;;;;;;;6.24;nan;-23991.09;5032006;28;20682;-70
2023/01/14 01:53:19;;;;;;;9.67;5.67;;;;;;;6.38;nan;-23995.06;5032559;28;20213;-71
2023/01/14 01:55:48;;;;;;;9.97;5.93;;;;;;;6.05;nan;-23985.69;5032237;28;20175;-71
2023/01/14 01:58:13;;;;;;;10.10;5.50;;;;;;;5.99;nan;-23984.13;5030453;28;20556;-70
2023/01/14 02:00:40;;;;;;;16.40;5.50;;;;;;;6.32;nan;-23993.38;5031814;28;20187;-71
2023/01/14 02:03:17;;;;;;;9.10;5.73;;;;;;;5.88;nan;-23981.00;5032356;28;20305;-70
2023/01/14 02:05:43;;;;;;;8.60;4.97;;;;;;;5.60;nan;-23973.03;5031769;28;20187;-73
2023/01/14 02:08:09;;;;;;;8.43;5.00;;;;;;;6.04;nan;-23985.56;5032128;28;20187;-72
2023/01/14 02:10:48;;;;;;;8.83;4.97;;;;;;;5.95;nan;-23982.84;5032059;28;20186;-71
2023/01/14 02:13:26;;;;;;;10.40;5.60;;;;;;;6.31;nan;-23993.09;5031371;28;20179;-71
2023/01/14 02:16:31;;;;;;;9.70;5.30;;;;;;;5.89;nan;-23981.28;5031927;28;20174;-71
2023/01/14 02:19:05;;;;;;;9.37;5.43;;;;;;;6.02;nan;-23984.97;5031979;28;20168;-70
2023/01/14 02:21:35;;;;;;;6.23;4.50;;;;;;;6.31;nan;-23992.94;5031798;28;20662;-71
2023/01/14 02:24:23;;;;;;;6.80;5.17;;;;;;;6.40;nan;-23995.63;5032021;28;20173;-72
2023/01/14 02:26:57;;;;;;;8.20;5.33;;;;;;;6.39;nan;-23995.22;5031496;28;20203;-71
2023/01/14 02:29:43;;;;;;;10.13;5.97;;;;;;;5.98;nan;-23983.84;5031979;28;20167;-71
2023/01/14 02:32:37;;;;;;;10.60;5.70;;;;;;;6.40;nan;-23995.63;5029693;28;20620;-72
2023/01/14 02:35:42;;;;;;;11.67;6.37;;;;;;;6.50;nan;-23998.47;5031972;28;20205;-71
2023/01/14 02:38:21;;;;;;;12.73;6.40;;;;;;;6.39;nan;-23995.22;5031851;28;20167;-71
2023/01/14 02:40:50;;;;;;;13.17;8.20;;;;;;;6.02;nan;-23984.97;5032043;28;20677;-71
2023/01/14 02:46:33;;;;;;;10.57;5.63;;;;;;;6.33;nan;-23993.50;5031264;28;20547;-71
2023/01/14 02:49:01;;;;;;;13.97;7.63;;;;;;;6.22;nan;-23990.66;5031021;28;20179;-71
2023/01/14 02:51:27;;;;;;;16.53;7.87;;;;;;;6.02;nan;-23984.84;5031650;28;20665;-71
2023/01/14 02:53:53;;;;;;;19.60;9.63;;;;;;;5.88;nan;-23981.00;5031603;28;20175;-72
2023/01/14 02:56:18;;;;;;;17.63;8.23;;;;;;;6.05;nan;-23985.69;5031388;28;20186;-71
2023/01/14 02:58:47;;;;;;;15.10;7.80;;;;;;;6.10;nan;-23987.13;5031436;28;20585;-72
2023/01/14 03:01:44;;;;;;;15.33;8.20;;;;;;;5.98;nan;-23983.72;5031507;28;20179;-70
2023/01/14 03:04:28;;;;;;;11.63;6.47;;;;;;;6.08;nan;-23986.69;5031426;28;20198;-70
2023/01/14 03:06:54;;;;;;;17.73;7.47;;;;;;;6.05;nan;-23985.84;5031289;28;20202;-70
2023/01/14 03:09:33;;;;;;;17.77;7.63;;;;;;;5.91;nan;-23981.88;5031199;28;20168;-71
2023/01/14 03:12:17;;;;;;;15.27;8.07;;;;;;;5.96;nan;-23983.13;5032071;28;20171;-72
2023/01/14 03:14:54;;;;;;;13.00;6.93;;;;;;;5.68;nan;-23975.31;5031692;28;20309;-72
2023/01/14 03:17:39;;;;;;;13.03;7.00;;;;;;;5.62;nan;-23973.63;5032063;28;20301;-71
2023/01/14 03:20:10;;;;;;;16.93;7.67;;;;;;;5.84;nan;-23979.88;5035035;28;20635;-71
2023/01/14 03:22:36;;;;;;;13.77;7.10;;;;;;;5.83;nan;-23979.59;5035293;28;20201;-71
2023/01/14 03:25:03;;;;;;;16.25;7.25;;;;;;;5.49;nan;-23970.06;5034417;28;20179;-70
2023/01/14 03:27:33;;;;;;;11.03;6.70;;;;;;;5.62;nan;-23973.75;5034045;28;20198;-70
2023/01/14 03:30:04;;;;;;;13.83;7.27;;;;;;;5.98;nan;-23983.84;5034939;28;20650;-71
2023/01/14 03:32:39;;;;;;;12.90;5.73;;;;;;;5.72;nan;-23976.59;5034979;28;20523;-72
2023/01/14 03:35:12;;;;;;;17.90;7.40;;;;;;;6.11;nan;-23987.41;5034809;28;20186;-72
2023/01/14 03:37:47;;;;;;;12.80;6.80;;;;;;;5.81;nan;-23979.00;5034824;28;20167;-72
2023/01/14 03:40:16;;;;;;;16.87;7.63;;;;;;;5.64;nan;-23974.19;5034548;28;20203;-72
2023/01/14 03:42:52;;;;;;;15.33;6.80;;;;;;;5.84;nan;-23979.88;5034444;28;20666;-73
2023/01/14 03:45:22;;;;;;;13.43;6.97;;;;;;;5.61;nan;-23973.34;5034704;28;20203;-71
2023/01/14 03:47:48;;;;;;;15.13;7.00;;;;;;;5.57;nan;-23972.19;5034648;28;20631;-72
2023/01/14 03:50:19;;;;;;;13.30;7.07;;;;;;;5.74;nan;-23977.03;5034599;28;20182;-71
2023/01/14 03:53:22;;;;;;;10.03;6.50;;;;;;;5.95;nan;-23982.84;5034399;28;20168;-72
2023/01/14 03:55:57;;;;;;;15.40;7.30;;;;;;;5.66;nan;-23974.91;5027599;28;20709;-72
2023/01/14 03:58:42;;;;;;;15.63;7.50;;;;;;;6.05;nan;-23985.69;5034450;28;20170;-71
2023/01/14 04:01:39;;;;;;;20.10;6.80;;;;;;;6.00;nan;-23984.41;5033928;28;20167;-70
2023/01/14 04:04:06;;;;;;;12.43;6.50;;;;;;;5.97;nan;-23983.41;5028368;28;20214;-71
2023/01/14 04:06:31;;;;;;;18.40;7.50;;;;;;;5.87;nan;-23980.72;5033885;28;20670;-71
2023/01/14 04:08:57;;;;;;;14.67;7.80;;;;;;;5.59;nan;-23972.75;5034058;28;20232;-71
2023/01/14 04:11:22;;;;;;;19.03;6.93;;;;;;;5.97;nan;-23983.41;5034193;28;20206;-72
2023/01/14 04:16:31;;;;;;;20.63;7.80;;;;;;;5.73;nan;-23976.75;5034569;28;20229;-73
2023/01/14 04:18:57;;;;;;;20.70;7.83;;;;;;;5.97;nan;-23983.56;5034198;28;20175;-72
2023/01/14 04:21:22;;;;;;;23.40;8.13;;;;;;;5.95;nan;-23983.00;5034005;28;20183;-73
2023/01/14 04:23:47;;;;;;;13.70;5.67;;;;;;;6.09;nan;-23986.84;5033555;28;20180;-71
2023/01/14 04:26:13;;;;;;;10.67;5.87;;;;;;;6.01;nan;-23984.56;5033376;28;20206;-73
2023/01/14 04:28:38;;;;;;;13.17;7.20;;;;;;;5.48;nan;-23969.63;5034076;28;20665;-72
2023/01/14 04:31:04;;;;;;;21.20;7.57;;;;;;;6.18;nan;-23989.53;5034091;28;20176;-72
2023/01/14 04:33:29;;;;;;;12.53;6.17;;;;;;;5.72;nan;-23976.47;5033954;28;20262;-71
2023/01/14 04:35:54;;;;;;;15.70;6.27;;;;;;;6.10;nan;-23987.13;5033322;28;20532;-71
2023/01/14 04:38:21;;;;;;;19.13;7.77;;;;;;;5.80;nan;-23978.72;5032812;28;20266;-71
2023/01/14 04:40:57;;;;;;;13.40;6.43;;;;;;;5.68;nan;-23975.47;5033020;28;20187;-71
2023/01/14 04:43:23;;;;;;;25.63;6.67;;;;;;;5.69;nan;-23975.59;5033604;28;20206;-71
2023/01/14 04:45:52;;;;;;;14.03;6.87;;;;;;;6.07;nan;-23986.41;5033178;28;20249;-70
2023/01/14 04:48:18;;;;;;;19.57;7.23;;;;;;;6.05;nan;-23985.84;5032329;28;20211;-71
2023/01/14 04:50:46;;;;;;;16.10;8.00;;;;;;;6.02;nan;-23984.84;5032488;28;20203;-72
2023/01/14 04:53:20;;;;;;;17.60;7.97;;;;;;;5.74;nan;-23977.03;5032859;28;20160;-71
2023/01/14 04:55:47;;;;;;;19.50;7.60;;;;;;;5.74;nan;-23977.16;5032959;28;20175;-72
2023/01/14 04:58:15;;;;;;;19.70;7.87;;;;;;;5.10;nan;-23958.97;5032755;28;20226;-70
2023/01/14 05:00:41;;;;;;;18.03;7.60;;;;;;;6.03;nan;-23985.28;5032774;28;20201;-71
2023/01/14 05:03:10;;;;;;;14.37;7.20;;;;;;;6.10;nan;-23987.13;5032433;28;20670;-72
2023/01/14 05:05:36;;;;;;;21.13;7.80;;;;;;;6.13;nan;-23987.97;5032762;28;20206;-72
2023/01/14 05:08:03;;;;;;;15.43;7.20;;;;;;;5.71;nan;-23976.31;5032286;28;20184;-71
2023/01/14 05:10:30;;;;;;;16.83;6.60;;;;;;;5.82;nan;-23979.31;5032547;28;20213;-72
2023/01/14 05:12:58;;;;;;;17.60;7.27;;;;;;;6.00;nan;-23984.41;5032743;28;20171;-72
2023/01/14 05:15:26;;;;;;;16.27;7.10;;;;;;;5.77;nan;-23978.03;5031744;28;20315;-72
2023/01/14 05:17:51;;;;;;;28.40;8.83;;;;;;;5.97;nan;-23983.56;5032184;28;20237;-72
2023/01/14 05:20:17;;;;;;;15.87;7.97;;;;;;;6.03;nan;-23985.28;5032274;28;20562;-72
2023/01/14 05:22:43;;;;;;;22.97;6.93;;;;;;;6.00;nan;-23984.41;5030531;28;20230;-71
2023/01/14 05:25:08;;;;;;;19.57;6.80;;;;;;;6.09;nan;-23986.97;5032845;28;20233;-72
2023/01/14 05:27:34;;;;;;;23.03;8.70;;;;;;;5.98;nan;-23983.72;5032575;28;20211;-71
2023/01/14 05:30:00;;;;;;;19.53;8.87;;;;;;;5.81;nan;-23979.00;5032535;28;20655;-72
2023/01/14 05:32:25;;;;;;;20.20;8.83;;;;;;;6.17;nan;-23989.25;5032171;28;20183;-72
2023/01/14 05:34:51;;;;;;;21.53;7.47;;;;;;;6.08;nan;-23986.69;5032202;28;20198;-72
2023/01/14 05:37:16;;;;;;;16.10;7.67;;;;;;;6.13;nan;-23987.97;5031967;28;20186;-72
2023/01/14 05:39:41;;;;;;;22.00;8.70;;;;;;;5.85;nan;-23980.00;5032125;28;20178;-71
2023/01/14 05:47:34;;;;;;;26.87;9.80;;;;;;;6.09;nan;-23986.84;5031651;28;20573;-72
2023/01/14 05:50:00;;;;;;;13.97;7.70;;;;;;;5.93;nan;-23982.28;5032054;28;20171;-71
2023/01/14 05:52:25;;;;;;;20.77;8.30;;;;;;;6.22;nan;-23990.53;5032077;28;20183;-71
2023/01/14 05:54:51;;;;;;;27.17;7.57;;;;;;;6.27;nan;-23991.94;5032084;28;20179;-72
2023/01/14 05:57:16;;;;;;;27.30;8.27;;;;;;;6.26;nan;-23991.53;5031842;28;20171;-72
2023/01/14 05:59:45;;;;;;;22.23;6.93;;;;;;;6.26;nan;-23991.53;5032066;28;20179;-74
2023/01/14 06:07:50;;;;;;;10.07;5.63;;;;;;;6.31;nan;-23992.94;5032047;28;20240;-72
2023/01/14 06:10:15;;;;;;;19.17;6.73;;;;;;;6.19;nan;-23989.69;5031742;28;20191;-72
2023/01/14 06:12:59;;;;;;;12.63;5.73;;;;;;;6.38;nan;-23995.06;5031325;28;20179;-73
2023/01/14 06:15:33;;;;;;;16.47;6.30;;;;;;;6.09;nan;-23986.84;5031836;28;20236;-72
2023/01/14 06:18:09;;;;;;;15.77;6.97;;;;;;;6.39;nan;-23995.22;5026877;28;20171;-72
2023/01/14 06:20:37;;;;;;;21.53;6.43;;;;;;;6.00;nan;-23984.28;5024701;28;20198;-75
2023/01/14 06:23:04;;;;;;;18.20;5.97;;;;;;;6.35;nan;-23994.06;5025132;28;20191;-74
2023/01/14 06:25:30;;;;;;;14.63;6.60;;;;;;;6.54;nan;-23999.47;5024924;28;20207;-74
2023/01/14 06:27:57;;;;;;;24.80;7.37;;;;;;;6.51;nan;-23998.63;5025096;28;20187;-75
2023/01/14 06:30:23;;;;;;;19.53;7.00;;;;;;;6.24;nan;-23990.94;5024911;28;20580;-74
2023/01/14 06:32:48;;;;;;;12.13;6.17;;;;;;;6.28;nan;-23992.22;5025443;28;20187;-74
2023/01/14 06:35:14;;;;;;;18.97;8.10;;;;;;;6.33;nan;-23993.50;5025656;28;20190;-74
2023/01/14 06:37:43;;;;;;;17.83;7.30;;;;;;;6.33;nan;-23993.50;5024670;28;20191;-74
2023/01/14 06:40:10;;;;;;;27.40;8.87;;;;;;;6.48;nan;-23997.91;5025449;28;20188;-73
2023/01/14 06:42:35;;;;;;;19.27;7.73;;;;;;;6.61;nan;-24001.59;5039992;28;20218;-73
2023/01/14 06:45:01;;;;;;;22.63;6.73;;;;;;;6.28;nan;-23992.22;5025165;28;20180;-73
2023/01/14 06:47:26;;;;;;;18.03;6.53;;;;;;;6.38;nan;-23995.06;5024811;28;20207;-74
2023/01/14 06:49:51;;;;;;;15.33;6.10;;;;;;;6.65;nan;-24002.59;5025542;28;20685;-72
2023/01/14 06:52:17;;;;;;;23.40;6.60;;;;;;;6.61;nan;-24001.59;5025425;28;20191;-74
2023/01/14 06:54:42;;;;;;;13.97;6.10;;;;;;;6.57;nan;-24000.31;5026184;28;20183;-73
2023/01/14 06:57:08;;;;;;;17.83;7.57;;;;;;;6.29;nan;-23992.50;5034547;28;21121;-72
2023/01/14 06:59:33;;;;;;;19.23;6.07;;;;;;;6.60;nan;-24001.31;5034702;28;20188;-74
2023/01/14 07:01:58;;;;;;;16.83;7.13;;;;;;;6.29;nan;-23992.38;5033326;28;20227;-71
2023/01/14 07:04:24;;;;;;;18.67;8.57;;;;;;;6.33;nan;-23993.50;5034912;28;20192;-72
2023/01/14 07:06:49;;;;;;;16.23;6.33;;;;;;;6.73;nan;-24004.88;5033510;28;20693;-74
2023/01/14 07:09:15;;;;;;;16.40;6.07;;;;;;;6.61;nan;-24001.47;5034584;28;20279;-74
2023/01/14 07:11:42;;;;;;;17.57;6.23;;;;;;;6.62;nan;-24001.75;5034732;28;20184;-74
2023/01/14 07:14:07;;;;;;;20.20;7.00;;;;;;;6.57;nan;-24000.31;5034436;28;20186;-71
2023/01/14 07:16:33;;;;;;;17.00;7.13;;;;;;;6.36;nan;-23994.34;5034337;28;20230;-74
2023/01/14 07:18:58;;;;;;;20.27;6.83;;;;;;;6.58;nan;-24000.75;5035016;28;20184;-75
2023/01/14 07:21:24;;;;;;;16.17;6.40;;;;;;;6.47;nan;-23997.47;5034036;28;20258;-73
2023/01/14 07:23:50;;;;;;;15.47;6.40;;;;;;;6.44;nan;-23996.78;5034280;28;20176;-72
2023/01/14 07:26:16;;;;;;;14.50;7.03;;;;;;;6.48;nan;-23997.75;5032853;28;20682;-75
2023/01/14 07:28:42;;;;;;;17.13;6.43;;;;;;;6.80;nan;-24006.72;5034212;28;20258;-73
2023/01/14 07:31:07;;;;;;;19.00;6.57;;;;;;;6.51;nan;-23998.75;5032564;28;20176;-73
2023/01/14 07:33:33;;;;;;;26.20;7.13;;;;;;;6.88;nan;-24008.97;5033748;28;20202;-72
2023/01/14 07:35:59;;;;;;;17.17;5.80;;;;;;;6.97;nan;-24011.66;5034003;28;20163;-74
2023/01/14 07:38:24;;;;;;;16.57;7.80;;;;;;;6.64;nan;-24002.31;5033939;28;20244;-73
2023/01/14 07:40:52;;;;;;;17.60;7.13;;;;;;;6.92;nan;-24010.25;5033619;28;20164;-74
2023/01/14 07:43:19;;;;;;;14.53;6.87;;;;;;;6.68;nan;-24003.31;5032759;28;20194;-74
2023/01/14 07:45:44;;;;;;;14.80;6.23;;;;;;;7.05;nan;-24013.94;5033507;28;20682;-73
2023/01/14 07:48:10;;;;;;;17.87;5.33;;;;;;;7.28;nan;-24020.31;5033069;28;20183;-72
2023/01/14 07:50:36;;;;;;;13.53;5.33;;;;;;;7.29;nan;-24020.47;5033482;28;20176;-73
2023/01/14 07:53:01;;;;;;;14.83;6.57;;;;;;;7.20;nan;-24017.91;5033699;28;20175;-71
2023/01/14 07:55:28;;;;;;;15.10;5.77;;;;;;;7.28;nan;-24020.19;5033555;28;20578;-73
2023/01/14 07:57:54;;;;;;;15.93;7.40;;;;;;;7.17;nan;-24017.19;5033432;28;20341;-72
2023/01/14 08:00:20;;;;;;;11.50;5.90;;;;;;;7.44;nan;-24024.72;5032721;28;20267;-73
2023/01/14 08:02:46;;;;;;;18.07;6.23;;;;;;;7.29;nan;-24020.47;5027855;28;20699;-72
2023/01/14 08:05:11;;;;;;;12.40;5.97;;;;;;;7.23;nan;-24018.75;5013113;28;20180;-71
2023/01/14 08:07:37;;;;;;;15.03;6.03;;;;;;;7.23;nan;-24018.91;5013239;28;20172;-72
2023/01/14 08:10:03;;;;;;;12.23;5.43;;;;;;;7.08;nan;-24014.78;4982400;28;20261;-72
2023/01/14 08:12:31;;;;;;;13.47;5.30;;;;;;;6.78;nan;-24006.13;5013673;28;20191;-74
2023/01/14 08:14:57;;;;;;;13.70;5.83;;;;;;;6.76;nan;-24005.72;5013588;28;20180;-73
2023/01/14 08:17:22;;;;;;;13.63;6.50;;;;;;;6.66;nan;-24003.00;5013435;28;20181;-73
2023/01/14 08:19:48;;;;;;;11.00;5.27;;;;;;;6.76;nan;-24005.72;5013623;28;20183;-73
2023/01/14 08:22:14;;;;;;;10.13;5.13;;;;;;;7.08;nan;-24014.78;5020992;28;20603;-71
2023/01/14 08:24:39;;;;;;;15.30;6.37;;;;;;;6.64;nan;-24002.31;5013371;28;20176;-72
2023/01/14 08:27:05;;;;;;;10.13;4.53;;;;;;;6.84;nan;-24007.84;5013191;28;20215;-73
2023/01/14 08:29:30;;;;;;;18.23;6.97;;;;;;;7.05;nan;-24013.94;5013195;28;20195;-73
2023/01/14 08:31:55;;;;;;;10.83;5.73;;;;;;;6.95;nan;-24011.09;5012957;28;20172;-73
2023/01/14 08:34:24;;;;;;;14.27;5.80;;;;;;;7.32;nan;-24021.31;5012862;28;20295;-71
2023/01/14 08:36:50;;;;;;;11.97;5.10;;;;;;;7.29;nan;-24020.47;5012676;28;20195;-72
2023/01/14 08:39:17;;;;;;;10.90;4.80;;;;;;;7.25;nan;-24019.47;5013209;28;20165;-73
2023/01/14 08:41:42;;;;;;;14.80;7.20;;;;;;;7.24;nan;-24019.19;5013172;28;20180;-74
2023/01/14 08:44:09;;;;;;;24.60;8.67;;;;;;;7.02;nan;-24012.94;5013273;28;20666;-73
2023/01/14 08:46:35;;;;;;;23.20;9.33;;;;;;;7.49;nan;-24026.28;5012861;28;20278;-74
2023/01/14 08:49:00;;;;;;;15.90;7.37;;;;;;;7.59;nan;-24028.97;5012955;28;20597;-75
2023/01/14 08:51:28;;;;;;;13.00;7.33;;;;;;;7.63;nan;-24030.09;5012392;28;20182;-73
2023/01/14 08:53:58;;;;;;;20.37;7.47;;;;;;;7.78;nan;-24034.34;5012654;28;20238;-73
2023/01/14 08:56:24;;;;;;;19.73;9.17;;;;;;;7.71;nan;-24032.38;5017311;28;20190;-72
2023/01/14 08:58:49;;;;;;;21.50;9.80;;;;;;;7.54;nan;-24027.56;5015788;28;20176;-73
2023/01/14 09:01:15;;;;;;;26.27;9.83;;;;;;;7.58;nan;-24028.69;5012513;28;20172;-71
2023/01/14 09:03:42;;;;;;;19.53;9.13;;;;;;;7.32;nan;-24021.47;5030529;28;20261;-72
2023/01/14 09:06:11;;;;;;;24.27;9.57;;;;;;;7.41;nan;-24023.88;5031710;28;20231;-73
2023/01/14 09:17:05;;;;;;;15.23;7.70;;;;;;;7.90;nan;-24037.75;5032011;28;20182;-75
2023/01/14 09:19:36;;;;;;;20.73;7.57;;;;;;;7.51;nan;-24026.84;5032236;28;20187;-73
2023/01/14 09:22:03;;;;;;;18.17;8.33;;;;;;;7.45;nan;-24025.13;5032070;28;20192;-73
2023/01/14 09:24:28;;;;;;;19.30;7.67;;;;;;;7.81;nan;-24035.22;5032122;28;20168;-74
2023/01/14 09:26:53;;;;;;;21.07;8.63;;;;;;;7.95;nan;-24039.16;5031590;28;20213;-73
2023/01/14 09:29:19;;;;;;;26.73;8.73;;;;;;;7.89;nan;-24037.47;5031478;28;20202;-73
2023/01/14 09:31:45;;;;;;;19.63;8.20;;;;;;;8.02;nan;-24041.00;5031505;28;20175;-73
2023/01/14 09:34:11;;;;;;;21.10;8.50;;;;;;;7.78;nan;-24034.22;5031928;28;20266;-73
2023/01/14 09:36:36;;;;;;;15.07;8.07;;;;;;;8.36;nan;-24050.66;5031222;28;20179;-73
2023/01/14 09:39:01;;;;;;;20.27;9.70;;;;;;;8.25;nan;-24047.38;5031861;28;20168;-73
2023/01/14 09:41:33;;;;;;;20.73;8.40;;;;;;;7.98;nan;-24039.88;5031072;28;20226;-75
2023/01/14 09:44:01;;;;;;;18.60;8.77;;;;;;;8.15;nan;-24044.69;5030110;28;20201;-73
2023/01/14 09:46:27;;;;;;;21.58;8.20;;;;;;;8.24;nan;-24047.09;5031712;28;20202;-73
2023/01/14 09:48:56;;;;;;;17.83;8.65;;;;;;;8.67;nan;-24059.28;5031482;28;20166;-73
2023/01/14 09:51:49;;;;;;;16.40;8.30;;;;;;;8.91;nan;-24065.94;5031590;28;20217;-72
2023/01/14 09:54:25;;;;;;;17.35;8.35;;;;;;;8.96;nan;-24067.19;5031359;28;20179;-73
2023/01/14 09:57:07;;;;;;;25.65;8.32;;;;;;;8.62;nan;-24057.72;5031499;28;20242;-73
2023/01/14 09:59:38;;;;;;;17.73;8.60;;;;;;;8.73;nan;-24060.97;5031784;28;20170;-72
2023/01/14 10:02:12;;;;;;;18.80;9.17;;;;;;;8.80;nan;-24062.94;5030911;28;20219;-73
2023/01/14 10:04:48;;;;;;;19.55;9.43;;;;;;;8.77;nan;-24061.97;5031216;28;20210;-75
2023/01/14 10:07:17;;;;;;;22.00;9.45;;;;;;;8.61;nan;-24057.56;5030585;28;20206;-72
2023/01/14 10:09:51;;;;;;;24.25;10.40;;;;;;;8.49;nan;-24054.03;5031329;28;20205;-73
2023/01/14 10:12:22;;;;;;;26.50;12.07;;;;;;;8.88;nan;-24065.06;5031095;28;20230;-74
2023/01/14 10:14:56;;;;;;;30.00;11.93;;;;;;;8.88;nan;-24065.22;5031025;28;20166;-74
2023/01/14 10:17:26;;;;;;;28.13;10.40;;;;;;;8.68;nan;-24059.56;5031439;28;20241;-74
2023/01/14 10:19:52;;;;;;;24.85;10.90;;;;;;;8.65;nan;-24058.56;5031402;28;20159;-75
2023/01/14 10:22:36;;;;;;;25.00;11.68;;;;;;;8.99;nan;-24068.03;5031211;28;20171;-75
2023/01/14 10:25:04;;;;;;;24.52;11.85;;;;;;;8.68;nan;-24059.56;5030992;28;20254;-74
2023/01/14 10:27:31;;;;;;;31.05;12.10;;;;;;;9.04;nan;-24069.47;5033947;28;20199;-73
2023/01/14 10:30:17;;;;;;;20.45;11.25;;;;;;;8.54;nan;-24055.59;5034993;28;20731;-73
2023/01/14 10:32:44;;;;;;;24.00;10.80;;;;;;;8.31;nan;-24049.22;5035115;28;20631;-73
2023/01/14 10:35:14;;;;;;;31.85;12.40;;;;;;;8.39;nan;-24051.50;5035348;28;20175;-74
2023/01/14 10:37:39;;;;;;;32.35;10.80;;;;;;;8.57;nan;-24056.31;5034631;28;20179;-74
2023/01/14 10:40:11;;;;;;;34.35;13.65;;;;;;;8.77;nan;-24061.97;5035276;28;20245;-73
2023/01/14 10:42:37;;;;;;;25.98;11.50;;;;;;;8.97;nan;-24067.47;5034971;28;20642;-73
2023/01/14 10:45:04;;;;;;;29.55;11.60;;;;;;;8.60;nan;-24057.28;5033604;28;20250;-72
2023/01/14 10:47:30;;;;;;;27.57;11.77;;;;;;;8.60;nan;-24057.28;5034914;28;20761;-73
2023/01/14 10:49:59;;;;;;;28.90;11.50;;;;;;;8.76;nan;-24061.81;5034877;28;20167;-73
2023/01/14 10:52:31;;;;;;;19.53;9.93;;;;;;;8.91;nan;-24065.78;5034352;28;20191;-73
2023/01/14 10:55:06;;;;;;;24.67;10.55;;;;;;;8.84;nan;-24064.09;5034109;28;20167;-73
2023/01/14 10:57:34;;;;;;;27.17;12.40;;;;;;;8.48;nan;-24053.91;5034311;28;20175;-74
2023/01/14 11:00:00;;;;;;;22.25;11.23;;;;;;;8.94;nan;-24066.78;5034838;28;20638;-73
2023/01/14 11:02:38;;;;;;;27.30;12.07;;;;;;;8.88;nan;-24065.22;5034335;28;20639;-73
2023/01/14 11:05:26;;;;;;;28.98;12.45;;;;;;;8.67;nan;-24059.28;5034248;28;20561;-73
2023/01/14 11:07:54;;;;;;;24.63;11.00;;;;;;;8.83;nan;-24063.66;5033490;28;20275;-73
2023/01/14 11:10:22;;;;;;;23.80;11.77;;;;;;;8.79;nan;-24062.66;5034611;28;20168;-72
2023/01/14 11:12:48;;;;;;;22.10;10.68;;;;;;;8.81;nan;-24063.09;5034202;28;20258;-72
2023/01/14 11:15:35;;;;;;;24.70;9.75;;;;;;;8.74;nan;-24061.13;5034073;28;20254;-72
2023/01/14 11:18:31;;;;;;;28.45;11.25;;;;;;;8.68;nan;-24059.41;5034190;28;20262;-73
2023/01/14 11:21:15;;;;;;;28.13;10.18;;;;;;;8.63;nan;-24058.00;5032412;28;20195;-72
2023/01/14 11:23:52;;;;;;;25.80;10.40;;;;;;;8.55;nan;-24055.75;5034209;28;20175;-74
2023/01/14 11:26:31;;;;;;;16.77;9.23;;;;;;;8.70;nan;-24060.13;5034161;28;20191;-74
2023/01/14 11:29:25;;;;;;;30.58;10.55;;;;;;;8.69;nan;-24059.69;5032791;28;20281;-74
2023/01/14 11:31:54;;;;;;;31.90;11.53;;;;;;;8.70;nan;-24059.97;5014109;28;20202;-72
2023/01/14 11:34:34;;;;;;;30.85;12.07;;;;;;;8.72;nan;-24060.56;5033676;28;20179;-74
2023/01/14 11:37:17;;;;;;;23.00;11.63;;;;;;;8.70;nan;-24060.13;5034189;28;20233;-73
2023/01/14 11:39:48;;;;;;;26.63;10.73;;;;;;;8.41;nan;-24051.91;5032949;28;20179;-75
2023/01/14 11:42:25;;;;;;;25.27;10.93;;;;;;;8.67;nan;-24059.13;5033537;28;20182;-75
2023/01/14 11:44:58;;;;;;;20.37;9.93;;;;;;;8.62;nan;-24057.88;5033401;28;20225;-74
2023/01/14 11:47:26;;;;;;;22.27;10.23;;;;;;;8.40;nan;-24051.78;5033945;28;20314;-73
2023/01/14 11:50:16;;;;;;;21.83;11.17;;;;;;;8.57;nan;-24056.44;5033722;28;20258;-73
2023/01/14 11:53:01;;;;;;;30.90;11.60;;;;;;;8.36;nan;-24050.66;5033788;28;20686;-75
2023/01/14 11:55:33;;;;;;;25.27;11.57;;;;;;;8.58;nan;-24056.59;5033262;28;20213;-72
2023/01/14 11:58:12;;;;;;;29.63;10.50;;;;;;;8.64;nan;-24058.28;5033178;28;20191;-72
2023/01/14 12:00:40;;;;;;;32.42;11.95;;;;;;;8.42;nan;-24052.19;5033278;28;20194;-73
2023/01/14 12:03:14;;;;;;;25.33;10.93;;;;;;;8.48;nan;-24053.91;5033273;28;20219;-74
2023/01/14 12:05:42;;;;;;;28.53;11.13;;;;;;;8.25;nan;-24047.53;5032786;28;20217;-74
2023/01/14 12:08:15;;;;;;;24.40;10.50;;;;;;;8.11;nan;-24043.41;5033460;28;20182;-75
2023/01/14 12:10:45;;;;;;;24.23;10.18;;;;;;;8.37;nan;-24050.78;5033392;28;20164;-74
2023/01/14 12:19:23;;;;;;;25.03;10.97;;;;;;;8.41;nan;-24051.91;5031248;28;20198;-74
2023/01/14 12:22:00;;;;;;;18.33;9.17;;;;;;;8.46;nan;-24053.19;5033877;28;20183;-73
2023/01/14 12:24:38;;;;;;;23.67;10.13;;;;;;;8.10;nan;-24043.13;5032112;28;20240;-76
2023/01/14 12:27:14;;;;;;;20.75;10.15;;;;;;;8.41;nan;-24052.06;5032155;28;20203;-75